SLBT weather

Buen Retiro Ballivian Airport
Ballivian, El Beni Department, Bolivia

Public forecast

Using degrees Celsius for public forecast. Weather courtesy of forecast.io.

METAR (pilot weather report)

Report is more than 6 hours old.

Closest report is Santa Rosa De Yacuma Airport, 17.0 nm (31.5 km) SW. Retrieved 2019/02/08 22:00 UTC (12 days ago):

SLSR 082200Z 00000KT 9999 FEW017 FEW023CB BKN200 33/23 Q1004

TAF (pilot weather forecast)

Forecast is more than 12 hours old.

Closest forecast is Teniente Av. Jorge Henrich Arauz Airport, 109.8 nm (203.3 km) ESE. Retrieved 2019/02/19 18:12 UTC (17 hours ago):

TAF SLTR 191650Z 1918/2018 32010KT 9999 FEW017 TX34/1920Z TN23/2010Z TEMPO 1919/1921 FEW020 FEW023CB BECMG 1923/2002 00000KT BECMG 2012/2014 33006KT FEW017 SCT070